PWSweather.com
Personal Weather Stations
Station Observations
IPORTUGA89
BarosaPT

BarosaPT

Lat: 39.754028, Lon: -8.843

Elevation: 98

Station Type: Davis Vp2

High Low Average
Temperature 76.3°F24.6°C 57.0°F13.9°C 65.7°F18.7°C
Dew Point 64.8°F18.2°C 55.0°F12.8°C 60.6°F15.9°C
Winds 10.1 mph 16.3 kmh Calm Calm 4.0 mph WSW6.4 kmh WSW
Wind Gusts 17.9 mph28.8 kmh -- 7.0 mph11.3 kmh
Humidity 94% 64% 84%
Pressure 30.24 in1024.0 mb 30.12 in1020.0 mb -
Precipitation 0.00 in0.0 mm - -
Hour Temp Dew Point Humidity Winds Wind Gusts Pressure Precip Precip Rate Daily Precip Total
12:01 AM 58.5°F14.7°C 56.1°F13.4°C 92% Calm Calm -- 30.12 in1020.0 mb 0.00 in0.0 mm 0.00 in0.0 mm 0.00 in0.0 mm
12:11 AM 58.3°F14.6°C 55.9°F13.3°C 92% Calm Calm 0.9 mph1.4 kmh 30.12 in1020.0 mb 0.00 in0.0 mm 0.00 in0.0 mm 0.00 in0.0 mm
12:21 AM 58.1°F14.5°C 56.1°F13.4°C 93% Calm Calm 2.0 mph3.2 kmh 30.12 in1020.0 mb 0.00 in0.0 mm 0.00 in0.0 mm 0.00 in0.0 mm
12:31 AM 57.7°F14.3°C 55.8°F13.2°C 93% Calm Calm 2.0 mph3.2 kmh 30.12 in1020.0 mb 0.00 in0.0 mm 0.00 in0.0 mm 0.00 in0.0 mm
12:42 AM 57.7°F14.3°C 55.8°F13.2°C 93% 0.9 mph SW1.4 kmh SW 2.0 mph3.2 kmh 30.12 in1020.0 mb 0.00 in0.0 mm 0.00 in0.0 mm 0.00 in0.0 mm
12:52 AM 57.6°F14.2°C 55.6°F13.1°C 93% Calm Calm 2.0 mph3.2 kmh 30.12 in1020.0 mb 0.00 in0.0 mm 0.00 in0.0 mm 0.00 in0.0 mm
01:02 AM 57.6°F14.2°C 55.6°F13.1°C 93% 0.9 mph SW1.4 kmh SW 2.0 mph3.2 kmh 30.12 in1020.0 mb 0.00 in0.0 mm 0.00 in0.0 mm 0.00 in0.0 mm
01:12 AM 57.2°F14.0°C 55.2°F12.9°C 93% 0.9 mph SW1.4 kmh SW 2.0 mph3.2 kmh 30.13 in1020.3 mb 0.00 in0.0 mm 0.00 in0.0 mm 0.00 in0.0 mm
01:22 AM 57.0°F13.9°C 55.0°F12.8°C 93% 0.9 mph SW1.4 kmh SW 2.0 mph3.2 kmh 30.13 in1020.3 mb 0.00 in0.0 mm 0.00 in0.0 mm 0.00 in0.0 mm
01:32 AM 57.4°F14.1°C 55.4°F13.0°C 93% 0.9 mph SW1.4 kmh SW 2.0 mph3.2 kmh 30.13 in1020.3 mb 0.00 in0.0 mm 0.00 in0.0 mm 0.00 in0.0 mm
01:42 AM 57.6°F14.2°C 55.8°F13.2°C 94% Calm Calm 0.9 mph1.4 kmh 30.13 in1020.3 mb 0.00 in0.0 mm 0.00 in0.0 mm 0.00 in0.0 mm
01:52 AM 57.9°F14.4°C 56.1°F13.4°C 94% Calm Calm 0.9 mph1.4 kmh 30.13 in1020.3 mb 0.00 in0.0 mm 0.00 in0.0 mm 0.00 in0.0 mm
02:02 AM 58.6°F14.8°C 56.8°F13.8°C 94% 0.9 mph SW1.4 kmh SW 2.0 mph3.2 kmh 30.13 in1020.3 mb 0.00 in0.0 mm 0.00 in0.0 mm 0.00 in0.0 mm
02:12 AM 58.8°F14.9°C 57.0°F13.9°C 94% Calm Calm 2.0 mph3.2 kmh 30.12 in1020.0 mb 0.00 in0.0 mm 0.00 in0.0 mm 0.00 in0.0 mm
02:22 AM 59.2°F15.1°C 57.4°F14.1°C 94% Calm Calm 2.0 mph3.2 kmh 30.12 in1020.0 mb 0.00 in0.0 mm 0.00 in0.0 mm 0.00 in0.0 mm
02:32 AM 59.4°F15.2°C 57.6°F14.2°C 94% Calm Calm 2.0 mph3.2 kmh 30.12 in1020.0 mb 0.00 in0.0 mm 0.00 in0.0 mm 0.00 in0.0 mm
02:42 AM 59.5°F15.3°C 57.7°F14.3°C 94% Calm Calm 2.0 mph3.2 kmh 30.12 in1020.0 mb 0.00 in0.0 mm 0.00 in0.0 mm 0.00 in0.0 mm
02:52 AM 59.5°F15.3°C 57.7°F14.3°C 94% Calm Calm 0.9 mph1.4 kmh 30.12 in1020.0 mb 0.00 in0.0 mm 0.00 in0.0 mm 0.00 in0.0 mm
03:02 AM 59.9°F15.5°C 58.1°F14.5°C 94% Calm Calm 0.9 mph1.4 kmh 30.12 in1020.0 mb 0.00 in0.0 mm 0.00 in0.0 mm 0.00 in0.0 mm
03:12 AM 60.4°F15.8°C 58.6°F14.8°C 94% Calm Calm 0.9 mph1.4 kmh 30.12 in1020.0 mb 0.00 in0.0 mm 0.00 in0.0 mm 0.00 in0.0 mm
03:22 AM 60.6°F15.9°C 58.8°F14.9°C 94% Calm Calm 0.9 mph1.4 kmh 30.13 in1020.3 mb 0.00 in0.0 mm 0.00 in0.0 mm 0.00 in0.0 mm
03:32 AM 61.2°F16.2°C 59.4°F15.2°C 94% Calm Calm 0.9 mph1.4 kmh 30.13 in1020.3 mb 0.00 in0.0 mm 0.00 in0.0 mm 0.00 in0.0 mm
03:42 AM 61.5°F16.4°C 59.7°F15.4°C 94% 0.9 mph SW1.4 kmh SW 2.0 mph3.2 kmh 30.12 in1020.0 mb 0.00 in0.0 mm 0.00 in0.0 mm 0.00 in0.0 mm
03:52 AM 62.1°F16.7°C 60.3°F15.7°C 94% 0.9 mph SW1.4 kmh SW 2.9 mph4.7 kmh 30.13 in1020.3 mb 0.00 in0.0 mm 0.00 in0.0 mm 0.00 in0.0 mm
04:02 AM 62.2°F16.8°C 60.4°F15.8°C 94% 0.9 mph WNW1.4 kmh WNW 2.9 mph4.7 kmh 30.13 in1020.3 mb 0.00 in0.0 mm 0.00 in0.0 mm 0.00 in0.0 mm
04:13 AM 62.2°F16.8°C 60.4°F15.8°C 94% 2.9 mph N4.7 kmh N 4.0 mph6.4 kmh 30.13 in1020.3 mb 0.00 in0.0 mm 0.00 in0.0 mm 0.00 in0.0 mm
04:23 AM 62.2°F16.8°C 60.4°F15.8°C 94% 2.0 mph 3.2 kmh 4.9 mph7.9 kmh 30.13 in1020.3 mb 0.00 in0.0 mm 0.00 in0.0 mm 0.00 in0.0 mm
04:33 AM 62.2°F16.8°C 60.4°F15.8°C 94% 2.9 mph NNE4.7 kmh NNE 4.9 mph7.9 kmh 30.14 in1020.7 mb 0.00 in0.0 mm 0.00 in0.0 mm 0.00 in0.0 mm
04:43 AM 62.2°F16.8°C 60.4°F15.8°C 94% 2.0 mph NNE3.2 kmh NNE 4.9 mph7.9 kmh 30.14 in1020.7 mb 0.00 in0.0 mm 0.00 in0.0 mm 0.00 in0.0 mm
04:53 AM 62.2°F16.8°C 60.4°F15.8°C 94% 0.9 mph NE1.4 kmh NE 4.0 mph6.4 kmh 30.14 in1020.7 mb 0.00 in0.0 mm 0.00 in0.0 mm 0.00 in0.0 mm
05:03 AM 62.2°F16.8°C 60.4°F15.8°C 94% 2.0 mph NE3.2 kmh NE 4.0 mph6.4 kmh 30.14 in1020.7 mb 0.00 in0.0 mm 0.00 in0.0 mm 0.00 in0.0 mm
05:13 AM 62.2°F16.8°C 60.4°F15.8°C 94% 2.0 mph NNE3.2 kmh NNE 4.0 mph6.4 kmh 30.14 in1020.7 mb 0.00 in0.0 mm 0.00 in0.0 mm 0.00 in0.0 mm
05:23 AM 62.2°F16.8°C 60.4°F15.8°C 94% 2.0 mph N3.2 kmh N 4.9 mph7.9 kmh 30.14 in1020.7 mb 0.00 in0.0 mm 0.00 in0.0 mm 0.00 in0.0 mm
05:33 AM 62.2°F16.8°C 60.4°F15.8°C 94% 2.0 mph NE3.2 kmh NE 4.0 mph6.4 kmh 30.14 in1020.7 mb 0.00 in0.0 mm 0.00 in0.0 mm 0.00 in0.0 mm
05:43 AM 62.2°F16.8°C 60.4°F15.8°C 94% 0.9 mph NE1.4 kmh NE 2.9 mph4.7 kmh 30.14 in1020.7 mb 0.00 in0.0 mm 0.00 in0.0 mm 0.00 in0.0 mm
05:53 AM 62.2°F16.8°C 60.4°F15.8°C 94% 0.9 mph NE1.4 kmh NE 2.9 mph4.7 kmh 30.14 in1020.7 mb 0.00 in0.0 mm 0.00 in0.0 mm 0.00 in0.0 mm
06:03 AM 62.2°F16.8°C 60.4°F15.8°C 94% 0.9 mph NE1.4 kmh NE 2.9 mph4.7 kmh 30.14 in1020.7 mb 0.00 in0.0 mm 0.00 in0.0 mm 0.00 in0.0 mm
06:13 AM 62.2°F16.8°C 60.4°F15.8°C 94% Calm Calm 2.0 mph3.2 kmh 30.15 in1021.0 mb 0.00 in0.0 mm 0.00 in0.0 mm 0.00 in0.0 mm
06:23 AM 62.2°F16.8°C 60.4°F15.8°C 94% 0.9 mph N1.4 kmh N 4.0 mph6.4 kmh 30.15 in1021.0 mb 0.00 in0.0 mm 0.00 in0.0 mm 0.00 in0.0 mm
06:34 AM 62.2°F16.8°C 60.4°F15.8°C 94% 2.0 mph NNW3.2 kmh NNW 4.0 mph6.4 kmh 30.16 in1021.3 mb 0.00 in0.0 mm 0.00 in0.0 mm 0.00 in0.0 mm
06:44 AM 62.4°F16.9°C 60.6°F15.9°C 94% 2.0 mph NNW3.2 kmh NNW 2.9 mph4.7 kmh 30.16 in1021.3 mb 0.00 in0.0 mm 0.00 in0.0 mm 0.00 in0.0 mm
06:54 AM 62.4°F16.9°C 60.6°F15.9°C 94% 2.0 mph NNW3.2 kmh NNW 4.0 mph6.4 kmh 30.16 in1021.3 mb 0.00 in0.0 mm 0.00 in0.0 mm 0.00 in0.0 mm
07:04 AM 62.6°F17.0°C 60.8°F16.0°C 94% 2.9 mph NW4.7 kmh NW 6.0 mph9.7 kmh 30.17 in1021.7 mb 0.00 in0.0 mm 0.00 in0.0 mm 0.00 in0.0 mm
07:14 AM 62.8°F17.1°C 61.0°F16.1°C 94% Calm Calm 2.0 mph3.2 kmh 30.17 in1021.7 mb 0.00 in0.0 mm 0.00 in0.0 mm 0.00 in0.0 mm
07:24 AM 62.8°F17.1°C 61.0°F16.1°C 94% 0.9 mph N1.4 kmh N 6.0 mph9.7 kmh 30.17 in1021.7 mb 0.00 in0.0 mm 0.00 in0.0 mm 0.00 in0.0 mm
07:34 AM 63.0°F17.2°C 61.0°F16.1°C 93% 2.9 mph N4.7 kmh N 6.0 mph9.7 kmh 30.18 in1022.0 mb 0.00 in0.0 mm 0.00 in0.0 mm 0.00 in0.0 mm
07:44 AM 63.0°F17.2°C 61.0°F16.1°C 93% 4.0 mph N6.4 kmh N 8.1 mph13.0 kmh 30.18 in1022.0 mb 0.00 in0.0 mm 0.00 in0.0 mm 0.00 in0.0 mm
07:54 AM 63.1°F17.3°C 61.2°F16.2°C 93% 2.0 mph N3.2 kmh N 4.9 mph7.9 kmh 30.18 in1022.0 mb 0.00 in0.0 mm 0.00 in0.0 mm 0.00 in0.0 mm
08:04 AM 63.1°F17.3°C 61.2°F16.2°C 93% 2.9 mph NNW4.7 kmh NNW 6.0 mph9.7 kmh 30.18 in1022.0 mb 0.00 in0.0 mm 0.00 in0.0 mm 0.00 in0.0 mm
08:14 AM 63.5°F17.5°C 61.5°F16.4°C 93% 2.9 mph NW4.7 kmh NW 8.1 mph13.0 kmh 30.19 in1022.4 mb 0.00 in0.0 mm 0.00 in0.0 mm 0.00 in0.0 mm
08:24 AM 63.9°F17.7°C 61.5°F16.4°C 92% 2.9 mph N4.7 kmh N 6.0 mph9.7 kmh 30.19 in1022.4 mb 0.00 in0.0 mm 0.00 in0.0 mm 0.00 in0.0 mm
08:35 AM 64.0°F17.8°C 61.7°F16.5°C 92% 2.0 mph N3.2 kmh N 4.0 mph6.4 kmh 30.19 in1022.4 mb 0.00 in0.0 mm 0.00 in0.0 mm 0.00 in0.0 mm
08:45 AM 64.6°F18.1°C 61.9°F16.6°C 91% 2.0 mph 3.2 kmh 4.9 mph7.9 kmh 30.19 in1022.4 mb 0.00 in0.0 mm 0.00 in0.0 mm 0.00 in0.0 mm
08:55 AM 64.9°F18.3°C 62.2°F16.8°C 91% 2.0 mph WNW3.2 kmh WNW 4.0 mph6.4 kmh 30.19 in1022.4 mb 0.00 in0.0 mm 0.00 in0.0 mm 0.00 in0.0 mm
09:05 AM 65.3°F18.5°C 62.1°F16.7°C 89% 2.0 mph NNW3.2 kmh NNW 6.0 mph9.7 kmh 30.20 in1022.7 mb 0.00 in0.0 mm 0.00 in0.0 mm 0.00 in0.0 mm
09:15 AM 65.7°F18.7°C 62.2°F16.8°C 89% 2.9 mph NNW4.7 kmh NNW 4.9 mph7.9 kmh 30.20 in1022.7 mb 0.00 in0.0 mm 0.00 in0.0 mm 0.00 in0.0 mm
09:25 AM 66.0°F18.9°C 62.4°F16.9°C 88% 2.9 mph NW4.7 kmh NW 6.9 mph11.1 kmh 30.20 in1022.7 mb 0.00 in0.0 mm 0.00 in0.0 mm 0.00 in0.0 mm
09:35 AM 66.0°F18.9°C 62.1°F16.7°C 87% 2.9 mph NNE4.7 kmh NNE 6.9 mph11.1 kmh 30.20 in1022.7 mb 0.00 in0.0 mm 0.00 in0.0 mm 0.00 in0.0 mm
09:45 AM 66.6°F19.2°C 62.6°F17.0°C 87% 4.0 mph NW6.4 kmh NW 10.1 mph16.3 kmh 30.20 in1022.7 mb 0.00 in0.0 mm 0.00 in0.0 mm 0.00 in0.0 mm
09:55 AM 66.7°F19.3°C 62.4°F16.9°C 86% 2.9 mph N4.7 kmh N 6.0 mph9.7 kmh 30.20 in1022.7 mb 0.00 in0.0 mm 0.00 in0.0 mm 0.00 in0.0 mm
10:05 AM 67.3°F19.6°C 63.0°F17.2°C 86% 4.0 mph N6.4 kmh N 8.1 mph13.0 kmh 30.20 in1022.7 mb 0.00 in0.0 mm 0.00 in0.0 mm 0.00 in0.0 mm
10:15 AM 67.5°F19.7°C 62.4°F16.9°C 84% 4.0 mph N6.4 kmh N 8.1 mph13.0 kmh 30.20 in1022.7 mb 0.00 in0.0 mm 0.00 in0.0 mm 0.00 in0.0 mm
10:25 AM 68.2°F20.1°C 63.5°F17.5°C 85% 2.9 mph NW4.7 kmh NW 6.9 mph11.1 kmh 30.19 in1022.4 mb 0.00 in0.0 mm 0.00 in0.0 mm 0.00 in0.0 mm
10:35 AM 68.9°F20.5°C 63.5°F17.5°C 83% 2.9 mph NW4.7 kmh NW 8.1 mph13.0 kmh 30.19 in1022.4 mb 0.00 in0.0 mm 0.00 in0.0 mm 0.00 in0.0 mm
10:45 AM 69.3°F20.7°C 63.1°F17.3°C 81% 4.0 mph N6.4 kmh N 8.1 mph13.0 kmh 30.19 in1022.4 mb 0.00 in0.0 mm 0.00 in0.0 mm 0.00 in0.0 mm
10:55 AM 69.8°F21.0°C 64.0°F17.8°C 82% 2.9 mph SSE4.7 kmh SSE 8.9 mph14.3 kmh 30.19 in1022.4 mb 0.00 in0.0 mm 0.00 in0.0 mm 0.00 in0.0 mm
11:05 AM 71.1°F21.7°C 63.9°F17.7°C 78% 2.0 mph 3.2 kmh 4.9 mph7.9 kmh 30.19 in1022.4 mb 0.00 in0.0 mm 0.00 in0.0 mm 0.00 in0.0 mm
11:25 AM 72.7°F22.6°C 64.8°F18.2°C 76% 2.9 mph NW4.7 kmh NW 8.1 mph13.0 kmh 30.19 in1022.4 mb 0.00 in0.0 mm 0.00 in0.0 mm 0.00 in0.0 mm
11:35 AM 73.6°F23.1°C 64.8°F18.2°C 74% 4.9 mph N7.9 kmh N 11.0 mph17.7 kmh 30.18 in1022.0 mb 0.00 in0.0 mm 0.00 in0.0 mm 0.00 in0.0 mm
11:45 AM 74.5°F23.6°C 64.4°F18.0°C 71% 6.9 mph NNW11.1 kmh NNW 13.0 mph20.9 kmh 30.18 in1022.0 mb 0.00 in0.0 mm 0.00 in0.0 mm 0.00 in0.0 mm
11:55 AM 75.0°F23.9°C 64.6°F18.1°C 70% 6.0 mph NE9.7 kmh NE 13.0 mph20.9 kmh 30.18 in1022.0 mb 0.00 in0.0 mm 0.00 in0.0 mm 0.00 in0.0 mm
12:05 PM 75.6°F24.2°C 64.8°F18.2°C 69% 6.9 mph NW11.1 kmh NW 12.1 mph19.5 kmh 30.18 in1022.0 mb 0.00 in0.0 mm 0.00 in0.0 mm 0.00 in0.0 mm
12:15 PM 75.4°F24.1°C 64.6°F18.1°C 69% 8.9 mph NW14.3 kmh NW 15.0 mph24.1 kmh 30.17 in1021.7 mb 0.00 in0.0 mm 0.00 in0.0 mm 0.00 in0.0 mm
12:25 PM 75.0°F23.9°C 63.3°F17.4°C 67% 8.1 mph NW13.0 kmh NW 15.0 mph24.1 kmh 30.17 in1021.7 mb 0.00 in0.0 mm 0.00 in0.0 mm 0.00 in0.0 mm
12:35 PM 75.0°F23.9°C 64.2°F17.9°C 69% 6.0 mph WSW9.7 kmh WSW 12.1 mph19.5 kmh 30.17 in1021.7 mb 0.00 in0.0 mm 0.00 in0.0 mm 0.00 in0.0 mm
12:45 PM 75.6°F24.2°C 64.2°F17.9°C 68% 6.9 mph N11.1 kmh N 12.1 mph19.5 kmh 30.17 in1021.7 mb 0.00 in0.0 mm 0.00 in0.0 mm 0.00 in0.0 mm
12:55 PM 75.7°F24.3°C 64.0°F17.8°C 67% 6.9 mph NW11.1 kmh NW 13.0 mph20.9 kmh 30.17 in1021.7 mb 0.00 in0.0 mm 0.00 in0.0 mm 0.00 in0.0 mm
01:05 PM 75.7°F24.3°C 64.0°F17.8°C 67% 8.1 mph N13.0 kmh N 15.0 mph24.1 kmh 30.17 in1021.7 mb 0.00 in0.0 mm 0.00 in0.0 mm 0.00 in0.0 mm
01:15 PM 76.3°F24.6°C 64.0°F17.8°C 66% 6.9 mph NNW11.1 kmh NNW 15.0 mph24.1 kmh 30.17 in1021.7 mb 0.00 in0.0 mm 0.00 in0.0 mm 0.00 in0.0 mm
01:25 PM 76.1°F24.5°C 63.9°F17.7°C 66% 8.9 mph 14.3 kmh 15.0 mph24.1 kmh 30.17 in1021.7 mb 0.00 in0.0 mm 0.00 in0.0 mm 0.00 in0.0 mm
01:35 PM 75.7°F24.3°C 64.4°F18.0°C 68% 6.0 mph NW9.7 kmh NW 13.0 mph20.9 kmh 30.16 in1021.3 mb 0.00 in0.0 mm 0.00 in0.0 mm 0.00 in0.0 mm
01:46 PM 76.3°F24.6°C 64.0°F17.8°C 66% 8.9 mph N14.3 kmh N 14.1 mph22.7 kmh 30.16 in1021.3 mb 0.00 in0.0 mm 0.00 in0.0 mm 0.00 in0.0 mm
01:56 PM 76.3°F24.6°C 64.0°F17.8°C 66% 8.1 mph NNW13.0 kmh NNW 14.1 mph22.7 kmh 30.16 in1021.3 mb 0.00 in0.0 mm 0.00 in0.0 mm 0.00 in0.0 mm
02:06 PM 76.1°F24.5°C 63.9°F17.7°C 66% 6.9 mph NNW11.1 kmh NNW 15.0 mph24.1 kmh 30.16 in1021.3 mb 0.00 in0.0 mm 0.00 in0.0 mm 0.00 in0.0 mm
02:16 PM 75.4°F24.1°C 63.7°F17.6°C 67% 10.1 mph W16.3 kmh W 14.1 mph22.7 kmh 30.16 in1021.3 mb 0.00 in0.0 mm 0.00 in0.0 mm 0.00 in0.0 mm
02:26 PM 75.4°F24.1°C 63.1°F17.3°C 66% 6.9 mph NW11.1 kmh NW 13.0 mph20.9 kmh 30.17 in1021.7 mb 0.00 in0.0 mm 0.00 in0.0 mm 0.00 in0.0 mm
02:36 PM 75.0°F23.9°C 62.1°F16.7°C 64% 8.1 mph NW13.0 kmh NW 14.1 mph22.7 kmh 30.17 in1021.7 mb 0.00 in0.0 mm 0.00 in0.0 mm 0.00 in0.0 mm
02:46 PM 74.7°F23.7°C 63.0°F17.2°C 67% 8.9 mph N14.3 kmh N 14.1 mph22.7 kmh 30.16 in1021.3 mb 0.00 in0.0 mm 0.00 in0.0 mm 0.00 in0.0 mm
02:56 PM 74.7°F23.7°C 62.6°F17.0°C 66% 8.9 mph WNW14.3 kmh WNW 17.0 mph27.4 kmh 30.16 in1021.3 mb 0.00 in0.0 mm 0.00 in0.0 mm 0.00 in0.0 mm
03:06 PM 75.4°F24.1°C 62.8°F17.1°C 65% 8.1 mph NNW13.0 kmh NNW 14.1 mph22.7 kmh 30.16 in1021.3 mb 0.00 in0.0 mm 0.00 in0.0 mm 0.00 in0.0 mm
03:16 PM 74.8°F23.8°C 62.8°F17.1°C 66% 10.1 mph NW16.3 kmh NW 17.0 mph27.4 kmh 30.16 in1021.3 mb 0.00 in0.0 mm 0.00 in0.0 mm 0.00 in0.0 mm
03:26 PM 73.9°F23.3°C 61.9°F16.6°C 66% 10.1 mph N16.3 kmh N 16.1 mph25.9 kmh 30.16 in1021.3 mb 0.00 in0.0 mm 0.00 in0.0 mm 0.00 in0.0 mm
03:36 PM 74.7°F23.7°C 62.6°F17.0°C 66% 8.1 mph WNW13.0 kmh WNW 13.0 mph20.9 kmh 30.17 in1021.7 mb 0.00 in0.0 mm 0.00 in0.0 mm 0.00 in0.0 mm
03:46 PM 74.8°F23.8°C 62.8°F17.1°C 66% 8.1 mph NW13.0 kmh NW 16.1 mph25.9 kmh 30.17 in1021.7 mb 0.00 in0.0 mm 0.00 in0.0 mm 0.00 in0.0 mm
03:56 PM 74.1°F23.4°C 62.4°F16.9°C 67% 8.9 mph WNW14.3 kmh WNW 14.1 mph22.7 kmh 30.18 in1022.0 mb 0.00 in0.0 mm 0.00 in0.0 mm 0.00 in0.0 mm
04:06 PM 73.8°F23.2°C 62.6°F17.0°C 68% 8.1 mph W13.0 kmh W 17.0 mph27.4 kmh 30.17 in1021.7 mb 0.00 in0.0 mm 0.00 in0.0 mm 0.00 in0.0 mm
04:16 PM 72.1°F22.3°C 61.9°F16.6°C 70% 8.9 mph N14.3 kmh N 17.9 mph28.8 kmh 30.18 in1022.0 mb 0.00 in0.0 mm 0.00 in0.0 mm 0.00 in0.0 mm
04:26 PM 71.8°F22.1°C 61.9°F16.6°C 71% 8.1 mph NW13.0 kmh NW 12.1 mph19.5 kmh 30.18 in1022.0 mb 0.00 in0.0 mm 0.00 in0.0 mm 0.00 in0.0 mm
04:36 PM 72.0°F22.2°C 62.4°F16.9°C 72% 6.0 mph WNW9.7 kmh WNW 11.0 mph17.7 kmh 30.17 in1021.7 mb 0.00 in0.0 mm 0.00 in0.0 mm 0.00 in0.0 mm
04:46 PM 72.1°F22.3°C 62.6°F17.0°C 72% 6.0 mph NW9.7 kmh NW 12.1 mph19.5 kmh 30.17 in1021.7 mb 0.00 in0.0 mm 0.00 in0.0 mm 0.00 in0.0 mm
04:56 PM 72.0°F22.2°C 62.4°F16.9°C 72% 4.9 mph W7.9 kmh W 10.1 mph16.3 kmh 30.17 in1021.7 mb 0.00 in0.0 mm 0.00 in0.0 mm 0.00 in0.0 mm
05:06 PM 72.0°F22.2°C 62.1°F16.7°C 71% 4.9 mph NNW7.9 kmh NNW 11.0 mph17.7 kmh 30.17 in1021.7 mb 0.00 in0.0 mm 0.00 in0.0 mm 0.00 in0.0 mm
05:16 PM 71.1°F21.7°C 61.5°F16.4°C 72% 4.9 mph N7.9 kmh N 10.1 mph16.3 kmh 30.17 in1021.7 mb 0.00 in0.0 mm 0.00 in0.0 mm 0.00 in0.0 mm
05:26 PM 71.2°F21.8°C 62.6°F17.0°C 74% 6.9 mph W11.1 kmh W 12.1 mph19.5 kmh 30.17 in1021.7 mb 0.00 in0.0 mm 0.00 in0.0 mm 0.00 in0.0 mm
05:36 PM 70.9°F21.6°C 62.2°F16.8°C 74% 4.9 mph WNW7.9 kmh WNW 10.1 mph16.3 kmh 30.17 in1021.7 mb 0.00 in0.0 mm 0.00 in0.0 mm 0.00 in0.0 mm
05:46 PM 70.0°F21.1°C 62.1°F16.7°C 76% 6.0 mph NW9.7 kmh NW 10.1 mph16.3 kmh 30.17 in1021.7 mb 0.00 in0.0 mm 0.00 in0.0 mm 0.00 in0.0 mm
05:56 PM 68.7°F20.4°C 61.2°F16.2°C 77% 6.9 mph NW11.1 kmh NW 12.1 mph19.5 kmh 30.17 in1021.7 mb 0.00 in0.0 mm 0.00 in0.0 mm 0.00 in0.0 mm
06:06 PM 67.6°F19.8°C 61.0°F16.1°C 79% 6.0 mph NW9.7 kmh NW 11.0 mph17.7 kmh 30.17 in1021.7 mb 0.00 in0.0 mm 0.00 in0.0 mm 0.00 in0.0 mm
06:16 PM 66.6°F19.2°C 60.3°F15.7°C 80% 6.0 mph NW9.7 kmh NW 11.0 mph17.7 kmh 30.18 in1022.0 mb 0.00 in0.0 mm 0.00 in0.0 mm 0.00 in0.0 mm
06:26 PM 65.7°F18.7°C 60.1°F15.6°C 82% 4.0 mph NW6.4 kmh NW 10.1 mph16.3 kmh 30.18 in1022.0 mb 0.00 in0.0 mm 0.00 in0.0 mm 0.00 in0.0 mm
06:36 PM 64.8°F18.2°C 59.5°F15.3°C 83% 2.9 mph NW4.7 kmh NW 6.9 mph11.1 kmh 30.18 in1022.0 mb 0.00 in0.0 mm 0.00 in0.0 mm 0.00 in0.0 mm
06:46 PM 64.2°F17.9°C 59.5°F15.3°C 85% 2.9 mph WNW4.7 kmh WNW 4.9 mph7.9 kmh 30.19 in1022.4 mb 0.00 in0.0 mm 0.00 in0.0 mm 0.00 in0.0 mm
06:56 PM 64.0°F17.8°C 59.7°F15.4°C 86% 4.0 mph NW6.4 kmh NW 8.9 mph14.3 kmh 30.19 in1022.4 mb 0.00 in0.0 mm 0.00 in0.0 mm 0.00 in0.0 mm
07:06 PM 63.5°F17.5°C 59.2°F15.1°C 86% 4.9 mph NW7.9 kmh NW 8.9 mph14.3 kmh 30.19 in1022.4 mb 0.00 in0.0 mm 0.00 in0.0 mm 0.00 in0.0 mm
07:16 PM 63.3°F17.4°C 59.4°F15.2°C 87% 4.0 mph NW6.4 kmh NW 8.9 mph14.3 kmh 30.19 in1022.4 mb 0.00 in0.0 mm 0.00 in0.0 mm 0.00 in0.0 mm
07:26 PM 63.1°F17.3°C 59.2°F15.1°C 87% 2.9 mph N4.7 kmh N 6.9 mph11.1 kmh 30.20 in1022.7 mb 0.00 in0.0 mm 0.00 in0.0 mm 0.00 in0.0 mm
07:36 PM 63.1°F17.3°C 59.2°F15.1°C 87% 4.0 mph N6.4 kmh N 8.9 mph14.3 kmh 30.21 in1023.0 mb 0.00 in0.0 mm 0.00 in0.0 mm 0.00 in0.0 mm
07:46 PM 63.1°F17.3°C 59.2°F15.1°C 87% 2.9 mph NNW4.7 kmh NNW 6.0 mph9.7 kmh 30.22 in1023.4 mb 0.00 in0.0 mm 0.00 in0.0 mm 0.00 in0.0 mm
07:56 PM 63.0°F17.2°C 59.0°F15.0°C 87% 4.0 mph N6.4 kmh N 8.1 mph13.0 kmh 30.22 in1023.4 mb 0.00 in0.0 mm 0.00 in0.0 mm 0.00 in0.0 mm
08:06 PM 62.8°F17.1°C 58.8°F14.9°C 87% 4.0 mph NNW6.4 kmh NNW 8.1 mph13.0 kmh 30.23 in1023.7 mb 0.00 in0.0 mm 0.00 in0.0 mm 0.00 in0.0 mm
08:17 PM 63.0°F17.2°C 59.0°F15.0°C 87% 4.0 mph N6.4 kmh N 8.1 mph13.0 kmh 30.23 in1023.7 mb 0.00 in0.0 mm 0.00 in0.0 mm 0.00 in0.0 mm
08:27 PM 63.0°F17.2°C 59.4°F15.2°C 88% 2.9 mph NW4.7 kmh NW 6.9 mph11.1 kmh 30.23 in1023.7 mb 0.00 in0.0 mm 0.00 in0.0 mm 0.00 in0.0 mm
08:37 PM 63.0°F17.2°C 59.4°F15.2°C 88% 2.0 mph NW3.2 kmh NW 4.9 mph7.9 kmh 30.23 in1023.7 mb 0.00 in0.0 mm 0.00 in0.0 mm 0.00 in0.0 mm
08:47 PM 63.0°F17.2°C 59.4°F15.2°C 88% 2.0 mph NW3.2 kmh NW 8.9 mph14.3 kmh 30.23 in1023.7 mb 0.00 in0.0 mm 0.00 in0.0 mm 0.00 in0.0 mm
08:57 PM 63.0°F17.2°C 59.4°F15.2°C 88% 4.0 mph N6.4 kmh N 8.9 mph14.3 kmh 30.23 in1023.7 mb 0.00 in0.0 mm 0.00 in0.0 mm 0.00 in0.0 mm
09:07 PM 63.0°F17.2°C 59.4°F15.2°C 88% 2.0 mph NW3.2 kmh NW 8.1 mph13.0 kmh 30.24 in1024.0 mb 0.00 in0.0 mm 0.00 in0.0 mm 0.00 in0.0 mm
09:17 PM 62.8°F17.1°C 59.2°F15.1°C 88% 4.0 mph NNW6.4 kmh NNW 8.1 mph13.0 kmh 30.24 in1024.0 mb 0.00 in0.0 mm 0.00 in0.0 mm 0.00 in0.0 mm
09:27 PM 62.8°F17.1°C 59.2°F15.1°C 88% 2.0 mph NW3.2 kmh NW 4.9 mph7.9 kmh 30.24 in1024.0 mb 0.00 in0.0 mm 0.00 in0.0 mm 0.00 in0.0 mm
09:37 PM 62.4°F16.9°C 58.8°F14.9°C 88% 0.9 mph N1.4 kmh N 4.0 mph6.4 kmh 30.24 in1024.0 mb 0.00 in0.0 mm 0.00 in0.0 mm 0.00 in0.0 mm
09:47 PM 62.4°F16.9°C 58.8°F14.9°C 88% 2.9 mph N4.7 kmh N 4.9 mph7.9 kmh 30.23 in1023.7 mb 0.00 in0.0 mm 0.00 in0.0 mm 0.00 in0.0 mm
09:57 PM 62.1°F16.7°C 58.8°F14.9°C 89% 2.0 mph NW3.2 kmh NW 4.0 mph6.4 kmh 30.23 in1023.7 mb 0.00 in0.0 mm 0.00 in0.0 mm 0.00 in0.0 mm
10:07 PM 62.1°F16.7°C 58.8°F14.9°C 89% 2.9 mph NW4.7 kmh NW 6.0 mph9.7 kmh 30.24 in1024.0 mb 0.00 in0.0 mm 0.00 in0.0 mm 0.00 in0.0 mm
10:17 PM 61.9°F16.6°C 58.6°F14.8°C 89% 2.9 mph WNW4.7 kmh WNW 4.0 mph6.4 kmh 30.23 in1023.7 mb 0.00 in0.0 mm 0.00 in0.0 mm 0.00 in0.0 mm
10:27 PM 61.9°F16.6°C 59.0°F15.0°C 90% 2.0 mph WNW3.2 kmh WNW 4.9 mph7.9 kmh 30.24 in1024.0 mb 0.00 in0.0 mm 0.00 in0.0 mm 0.00 in0.0 mm
10:37 PM 61.7°F16.5°C 58.8°F14.9°C 90% 0.9 mph NW1.4 kmh NW 4.0 mph6.4 kmh 30.23 in1023.7 mb 0.00 in0.0 mm 0.00 in0.0 mm 0.00 in0.0 mm
10:47 PM 61.7°F16.5°C 58.8°F14.9°C 90% 2.0 mph NNW3.2 kmh NNW 4.9 mph7.9 kmh 30.23 in1023.7 mb 0.00 in0.0 mm 0.00 in0.0 mm 0.00 in0.0 mm
10:58 PM 61.9°F16.6°C 59.0°F15.0°C 90% 2.0 mph W3.2 kmh W 4.0 mph6.4 kmh 30.24 in1024.0 mb 0.00 in0.0 mm 0.00 in0.0 mm 0.00 in0.0 mm
11:08 PM 61.9°F16.6°C 59.0°F15.0°C 90% 2.0 mph NW3.2 kmh NW 8.1 mph13.0 kmh 30.23 in1023.7 mb 0.00 in0.0 mm 0.00 in0.0 mm 0.00 in0.0 mm
11:18 PM 61.9°F16.6°C 59.0°F15.0°C 90% 4.0 mph N6.4 kmh N 10.1 mph16.3 kmh 30.23 in1023.7 mb 0.00 in0.0 mm 0.00 in0.0 mm 0.00 in0.0 mm
11:28 PM 61.7°F16.5°C 58.8°F14.9°C 90% 4.0 mph N6.4 kmh N 8.9 mph14.3 kmh 30.24 in1024.0 mb 0.00 in0.0 mm 0.00 in0.0 mm 0.00 in0.0 mm
11:38 PM 61.7°F16.5°C 59.0°F15.0°C 91% 2.9 mph NW4.7 kmh NW 6.0 mph9.7 kmh 30.24 in1024.0 mb 0.00 in0.0 mm 0.00 in0.0 mm 0.00 in0.0 mm
11:48 PM 61.5°F16.4°C 58.8°F14.9°C 91% 2.9 mph NNW4.7 kmh NNW 4.9 mph7.9 kmh 30.24 in1024.0 mb 0.00 in0.0 mm 0.00 in0.0 mm 0.00 in0.0 mm
11:58 PM 61.5°F16.4°C 58.8°F14.9°C 91% 0.9 mph N1.4 kmh N 4.0 mph6.4 kmh 30.24 in1024.0 mb 0.00 in0.0 mm 0.00 in0.0 mm 0.00 in0.0 mm